Time;durP1;ratioP1;P1;durP2;ratioP2;P2;SDS_P1;SDS_P2;PMS_P1;PMS_P2;Temp;Humidity;BMP_temperature;BMP_pressure;BME280_temperature;BME280_humidity;BME280_pressure;Samples;Min_cycle;Max_cycle;Signal;HPM_P1;HPM_P2
2022/08/16 00:01:48;;;;;;;21.75;19.13;;;21.50;99.90;;;;;;5100486;28;20043;-50
2022/08/16 00:04:14;;;;;;;24.17;20.80;;;21.50;99.90;;;;;;5101266;28;20040;-50
2022/08/16 00:06:40;;;;;;;22.83;20.35;;;21.50;99.90;;;;;;5100051;28;20095;-51
2022/08/16 00:09:07;;;;;;;23.27;20.90;;;21.50;99.90;;;;;;5100726;28;20064;-51
2022/08/16 00:11:33;;;;;;;23.88;21.45;;;21.50;99.90;;;;;;5100112;28;20048;-50
2022/08/16 00:14:00;;;;;;;23.35;20.58;;;21.50;99.90;;;;;;5100385;28;20047;-51
2022/08/16 00:16:28;;;;;;;25.30;22.40;;;21.50;99.90;;;;;;5100335;28;20054;-49
2022/08/16 00:18:53;;;;;;;23.52;21.02;;;21.50;99.90;;;;;;5099737;28;20376;-51
2022/08/16 00:21:19;;;;;;;23.83;21.23;;;21.40;99.90;;;;;;5100732;28;20048;-53
2022/08/16 00:23:45;;;;;;;25.92;23.30;;;21.40;99.90;;;;;;5081932;28;20100;-50
2022/08/16 00:26:10;;;;;;;26.10;23.10;;;21.30;99.90;;;;;;5080517;28;20518;-52
2022/08/16 00:28:36;;;;;;;24.13;21.75;;;21.40;99.90;;;;;;5079374;28;20084;-51
2022/08/16 00:31:02;;;;;;;26.67;23.92;;;21.30;99.90;;;;;;5080119;28;20040;-51
2022/08/16 00:33:27;;;;;;;25.35;22.83;;;21.30;99.90;;;;;;5079705;28;20044;-51
2022/08/16 00:35:53;;;;;;;25.65;22.95;;;21.30;99.90;;;;;;5079991;28;20095;-51
2022/08/16 00:38:19;;;;;;;24.52;21.92;;;21.20;99.90;;;;;;5090042;28;20047;-51
2022/08/16 00:40:47;;;;;;;25.75;22.88;;;21.20;99.90;;;;;;5099686;28;20095;-50
2022/08/16 00:43:17;;;;;;;24.85;21.85;;;21.30;99.90;;;;;;5100606;28;20040;-50
2022/08/16 00:46:08;;;;;;;26.25;22.48;;;21.30;99.90;;;;;;5099416;28;20666;-49
2022/08/16 00:48:34;;;;;;;23.88;21.38;;;21.30;99.90;;;;;;5099777;28;20064;-50
2022/08/16 00:51:02;;;;;;;24.95;21.55;;;21.30;99.90;;;;;;5100328;28;20086;-48
2022/08/16 00:53:28;;;;;;;23.90;21.48;;;21.40;99.90;;;;;;5099495;28;20549;-50
2022/08/16 00:55:57;;;;;;;24.13;21.63;;;21.30;99.90;;;;;;5100468;28;20399;-50
2022/08/16 01:04:58;;;;;;;23.50;20.80;;;21.30;99.90;;;;;;5084212;28;20463;-52
2022/08/16 01:07:24;;;;;;;22.90;20.58;;;21.40;99.90;;;;;;5082924;28;20036;-52
2022/08/16 01:09:50;;;;;;;22.48;20.10;;;21.40;99.90;;;;;;5089336;28;20048;-52
2022/08/16 01:12:18;;;;;;;24.58;21.23;;;21.40;99.90;;;;;;5091401;28;20052;-52
2022/08/16 01:14:49;;;;;;;23.00;20.10;;;21.40;99.90;;;;;;5083889;28;20064;-52
2022/08/16 01:17:18;;;;;;;22.20;19.80;;;21.30;99.90;;;;;;5080636;28;20048;-50
2022/08/16 01:19:50;;;;;;;22.48;20.13;;;21.30;99.90;;;;;;5099139;28;20055;-50
2022/08/16 01:22:24;;;;;;;24.02;21.20;;;21.30;99.90;;;;;;5099568;28;20037;-51
2022/08/16 01:24:58;;;;;;;23.92;21.50;;;21.30;99.90;;;;;;5097912;28;20092;-50
2022/08/16 01:27:35;;;;;;;22.45;20.15;;;21.30;99.90;;;;;;5085072;28;20053;-49
2022/08/16 01:30:05;;;;;;;23.20;20.70;;;21.30;99.90;;;;;;5079663;28;20048;-49
2022/08/16 01:32:34;;;;;;;24.05;21.50;;;21.30;99.90;;;;;;5082928;28;20045;-50
2022/08/16 01:35:07;;;;;;;23.67;21.17;;;21.20;99.90;;;;;;5083123;28;20106;-50
2022/08/16 01:37:47;;;;;;;22.92;20.63;;;21.30;99.90;;;;;;5085838;28;20028;-51
2022/08/16 01:40:15;;;;;;;22.40;20.13;;;21.30;99.90;;;;;;5103217;28;20143;-50
2022/08/16 01:42:42;;;;;;;23.33;20.90;;;21.20;99.90;;;;;;5103689;28;20044;-51
2022/08/16 01:45:08;;;;;;;24.10;20.75;;;21.30;99.90;;;;;;5102640;28;20048;-51
2022/08/16 01:47:36;;;;;;;23.38;20.98;;;21.30;99.90;;;;;;5103435;28;20127;-51
2022/08/16 01:50:03;;;;;;;23.98;20.38;;;21.20;99.90;;;;;;5102896;28;20052;-49
2022/08/16 01:52:29;;;;;;;22.33;20.02;;;21.10;99.90;;;;;;5103380;28;20040;-49
2022/08/16 01:54:55;;;;;;;22.65;20.35;;;21.10;99.90;;;;;;5101842;28;20047;-50
2022/08/16 01:57:21;;;;;;;23.15;20.75;;;21.10;99.90;;;;;;5102797;28;20055;-52
2022/08/16 01:59:47;;;;;;;22.60;20.30;;;21.10;99.90;;;;;;5103429;28;20048;-51
2022/08/16 02:02:13;;;;;;;21.23;19.00;;;21.00;99.90;;;;;;5102551;28;20039;-49
2022/08/16 02:04:38;;;;;;;20.55;18.50;;;21.00;99.90;;;;;;5103322;28;20119;-52
2022/08/16 02:07:07;;;;;;;23.20;20.80;;;21.00;99.90;;;;;;5102278;28;20044;-51
2022/08/16 02:09:36;;;;;;;23.30;20.38;;;21.00;99.90;;;;;;5102729;28;20052;-51
2022/08/16 02:12:05;;;;;;;23.23;19.92;;;21.00;99.90;;;;;;5102459;28;20051;-52
2022/08/16 02:14:32;;;;;;;23.08;19.67;;;21.00;99.90;;;;;;5101054;28;20077;-49
2022/08/16 02:17:02;;;;;;;23.20;20.58;;;21.10;99.90;;;;;;5103145;28;20040;-51
2022/08/16 02:19:29;;;;;;;21.70;19.40;;;21.10;99.90;;;;;;5102560;28;20052;-50
2022/08/16 02:21:57;;;;;;;21.65;19.38;;;21.10;99.90;;;;;;5102960;28;20036;-48
2022/08/16 02:24:23;;;;;;;24.25;20.75;;;21.00;99.90;;;;;;5102224;28;20351;-51
2022/08/16 02:26:49;;;;;;;22.30;20.10;;;21.10;99.90;;;;;;5102722;28;20099;-48
2022/08/16 02:29:17;;;;;;;22.55;20.25;;;21.10;99.90;;;;;;5102328;28;20048;-48
2022/08/16 02:31:44;;;;;;;23.10;20.80;;;21.10;99.90;;;;;;5102132;28;20083;-51
2022/08/16 02:34:11;;;;;;;22.80;20.38;;;21.00;99.90;;;;;;5101567;28;20059;-53
2022/08/16 02:36:36;;;;;;;24.98;22.08;;;21.00;99.90;;;;;;5101887;28;20588;-51
2022/08/16 02:39:04;;;;;;;23.33;20.85;;;21.10;99.90;;;;;;5102096;28;20324;-49
2022/08/16 02:41:30;;;;;;;22.58;20.23;;;21.10;99.90;;;;;;5101325;28;20085;-51
2022/08/16 02:43:56;;;;;;;24.33;20.98;;;21.00;99.90;;;;;;5102338;28;20068;-52
2022/08/16 02:46:21;;;;;;;24.10;21.52;;;21.10;99.90;;;;;;5102063;28;20086;-50
2022/08/16 02:48:47;;;;;;;24.23;21.67;;;21.10;99.90;;;;;;5101678;28;20086;-49
2022/08/16 02:51:13;;;;;;;24.05;21.52;;;21.10;99.90;;;;;;5102596;28;20044;-52
2022/08/16 02:53:42;;;;;;;23.67;21.05;;;21.10;99.90;;;;;;5101270;28;20040;-51
2022/08/16 02:56:09;;;;;;;23.80;21.40;;;21.10;99.90;;;;;;5102250;28;20044;-52
2022/08/16 02:58:36;;;;;;;24.60;22.00;;;21.10;99.90;;;;;;5101449;28;20044;-52
2022/08/16 03:01:02;;;;;;;24.92;22.25;;;21.00;99.90;;;;;;5102003;28;20040;-52
2022/08/16 03:03:27;;;;;;;24.42;22.00;;;21.00;99.90;;;;;;5101895;28;20069;-49
2022/08/16 03:05:54;;;;;;;23.30;20.55;;;21.00;99.90;;;;;;5101582;28;20052;-51
2022/08/16 03:08:21;;;;;;;23.98;21.50;;;20.90;99.90;;;;;;5102142;28;20052;-52
2022/08/16 03:10:48;;;;;;;24.00;21.55;;;20.90;99.90;;;;;;5100935;28;20044;-52
2022/08/16 03:13:16;;;;;;;24.90;22.30;;;20.80;99.90;;;;;;5102042;28;20040;-52
2022/08/16 03:15:44;;;;;;;26.27;23.25;;;20.70;99.90;;;;;;5100956;28;20048;-49
2022/08/16 03:18:10;;;;;;;24.67;22.25;;;20.70;99.90;;;;;;5101335;28;20040;-52
2022/08/16 03:20:36;;;;;;;26.50;22.90;;;20.70;99.90;;;;;;5100457;28;20040;-50
2022/08/16 03:23:03;;;;;;;25.60;22.90;;;20.70;99.90;;;;;;5101340;28;20040;-52
2022/08/16 03:25:30;;;;;;;24.80;21.45;;;20.70;99.90;;;;;;5101822;28;20051;-51
2022/08/16 03:27:55;;;;;;;26.63;21.42;;;20.70;99.90;;;;;;5099150;28;20066;-52
2022/08/16 03:30:24;;;;;;;25.85;22.25;;;20.60;99.90;;;;;;5101628;28;20042;-50
2022/08/16 03:32:50;;;;;;;23.67;21.13;;;20.60;99.90;;;;;;5100736;28;20036;-51
2022/08/16 03:35:19;;;;;;;24.92;22.33;;;20.60;99.90;;;;;;5101178;28;20153;-52
2022/08/16 03:37:47;;;;;;;25.50;21.77;;;20.60;99.90;;;;;;5100715;28;20044;-51
2022/08/16 03:40:13;;;;;;;38.10;21.65;;;20.50;99.90;;;;;;5100918;28;20105;-52
2022/08/16 03:42:39;;;;;;;24.95;21.95;;;20.50;99.90;;;;;;5101743;28;20036;-49
2022/08/16 03:45:06;;;;;;;23.90;21.40;;;20.50;99.90;;;;;;5100545;28;20042;-49
2022/08/16 03:47:33;;;;;;;25.13;22.17;;;20.40;99.90;;;;;;5101073;28;20052;-51
2022/08/16 03:49:59;;;;;;;25.65;23.02;;;20.40;99.90;;;;;;5100577;28;20040;-50
2022/08/16 03:52:25;;;;;;;24.98;22.38;;;20.40;99.90;;;;;;5100427;28;20067;-50
2022/08/16 03:54:52;;;;;;;25.30;22.13;;;20.30;99.90;;;;;;5100698;28;20097;-51
2022/08/16 03:57:17;;;;;;;24.90;22.23;;;20.40;99.90;;;;;;5100879;28;20155;-48
2022/08/16 03:59:43;;;;;;;25.13;21.52;;;20.30;99.90;;;;;;5101086;28;20120;-51
2022/08/16 04:02:11;;;;;;;24.30;21.80;;;20.20;99.90;;;;;;5099997;28;20044;-51
2022/08/16 04:04:37;;;;;;;25.02;21.73;;;20.20;99.90;;;;;;5100863;28;20044;-51
2022/08/16 04:07:05;;;;;;;25.58;22.65;;;20.20;99.90;;;;;;5100134;28;20672;-52
2022/08/16 04:09:31;;;;;;;27.08;23.33;;;20.10;99.90;;;;;;5100018;28;20043;-52
2022/08/16 04:11:57;;;;;;;26.15;23.45;;;20.10;99.90;;;;;;5100239;28;20071;-52
2022/08/16 04:14:23;;;;;;;25.67;22.98;;;20.00;99.90;;;;;;5100612;28;20585;-49
2022/08/16 04:16:49;;;;;;;26.95;24.17;;;20.10;99.90;;;;;;5100580;28;20063;-50
2022/08/16 04:19:15;;;;;;;26.48;23.42;;;20.00;99.90;;;;;;5099917;28;20044;-52
2022/08/16 04:21:40;;;;;;;26.73;22.98;;;20.00;99.90;;;;;;5099423;28;20103;-51
2022/08/16 04:24:06;;;;;;;27.45;24.55;;;20.00;99.90;;;;;;5099938;28;20066;-52
2022/08/16 04:26:32;;;;;;;27.10;24.10;;;19.90;99.90;;;;;;5100360;28;20036;-50
2022/08/16 04:29:03;;;;;;;26.27;23.15;;;20.00;99.90;;;;;;5099898;28;20047;-51
2022/08/16 04:31:29;;;;;;;25.58;22.95;;;19.90;99.90;;;;;;5099986;28;20514;-52
2022/08/16 04:33:58;;;;;;;26.42;23.58;;;19.90;99.90;;;;;;5100613;28;20064;-49
2022/08/16 04:36:26;;;;;;;26.08;23.30;;;19.90;99.90;;;;;;5099752;28;20134;-49
2022/08/16 04:38:53;;;;;;;24.85;22.00;;;19.90;99.90;;;;;;5100252;28;20047;-52
2022/08/16 04:41:19;;;;;;;29.10;24.60;;;19.80;99.90;;;;;;5099756;28;20044;-50
2022/08/16 04:43:44;;;;;;;25.45;22.75;;;19.80;99.90;;;;;;5100390;28;20126;-51
2022/08/16 04:46:13;;;;;;;24.70;22.02;;;19.70;99.90;;;;;;5098067;28;20040;-50
2022/08/16 04:48:40;;;;;;;25.70;22.98;;;19.90;99.90;;;;;;5099109;28;20056;-51
2022/08/16 04:51:07;;;;;;;27.20;23.08;;;19.80;99.90;;;;;;5099320;28;20177;-49
2022/08/16 04:53:34;;;;;;;25.55;22.30;;;19.80;99.90;;;;;;5098570;28;20051;-51
2022/08/16 04:56:00;;;;;;;25.42;22.70;;;19.80;99.90;;;;;;5099270;28;20040;-51
2022/08/16 04:58:26;;;;;;;26.33;22.17;;;19.90;99.90;;;;;;5097981;28;20036;-52
2022/08/16 05:00:52;;;;;;;27.75;22.55;;;19.90;99.90;;;;;;5099098;28;20051;-50
2022/08/16 05:03:18;;;;;;;26.30;22.98;;;19.90;99.90;;;;;;5098136;28;20060;-48
2022/08/16 05:05:44;;;;;;;25.33;22.52;;;19.90;99.90;;;;;;5103085;28;20044;-50
2022/08/16 05:08:10;;;;;;;25.50;22.45;;;20.00;99.90;;;;;;5103159;28;20059;-51
2022/08/16 05:10:37;;;;;;;26.10;22.42;;;20.00;99.90;;;;;;5102446;28;20066;-52
2022/08/16 05:13:04;;;;;;;26.15;23.33;;;20.10;99.90;;;;;;5103279;28;20492;-51
2022/08/16 05:15:30;;;;;;;26.02;22.33;;;20.10;99.90;;;;;;5102480;28;20089;-50
2022/08/16 05:17:56;;;;;;;24.08;21.58;;;20.10;99.90;;;;;;5103051;28;20127;-49
2022/08/16 05:20:22;;;;;;;24.00;20.77;;;20.10;99.90;;;;;;5102316;28;20445;-48
2022/08/16 05:22:48;;;;;;;26.35;22.23;;;20.20;99.90;;;;;;5103079;28;20043;-52
2022/08/16 05:25:15;;;;;;;28.52;23.17;;;20.20;99.90;;;;;;5102948;28;20044;-51
2022/08/16 05:27:42;;;;;;;26.15;23.27;;;20.20;99.90;;;;;;5101058;28;20075;-49
2022/08/16 05:30:12;;;;;;;26.25;21.63;;;20.20;99.90;;;;;;5103135;28;20109;-48
2022/08/16 05:32:39;;;;;;;24.40;21.80;;;20.20;99.90;;;;;;5100276;28;20052;-48
2022/08/16 05:35:08;;;;;;;23.73;21.27;;;20.30;99.90;;;;;;5102772;28;20044;-48
2022/08/16 05:37:34;;;;;;;28.60;23.23;;;20.40;99.90;;;;;;5101621;28;20044;-51
2022/08/16 05:40:01;;;;;;;25.25;22.50;;;20.30;99.90;;;;;;5102429;28;20040;-48
2022/08/16 05:42:26;;;;;;;27.15;21.90;;;20.40;99.90;;;;;;5102255;28;20036;-48
2022/08/16 05:44:52;;;;;;;23.75;21.38;;;20.40;99.90;;;;;;5099297;28;20100;-52
2022/08/16 05:47:17;;;;;;;23.75;20.88;;;20.50;99.90;;;;;;5099171;28;20052;-50
2022/08/16 05:49:43;;;;;;;23.33;20.38;;;20.60;99.90;;;;;;5098346;28;20099;-48
2022/08/16 05:52:10;;;;;;;23.52;21.13;;;20.60;99.90;;;;;;5097967;28;20123;-49
2022/08/16 05:54:36;;;;;;;24.77;21.40;;;20.60;99.90;;;;;;5098217;28;20277;-50
2022/08/16 05:57:02;;;;;;;22.63;20.08;;;20.60;99.90;;;;;;5098428;28;20044;-51
2022/08/16 05:59:28;;;;;;;23.92;20.38;;;20.60;99.90;;;;;;5098511;28;20056;-52
2022/08/16 06:01:54;;;;;;;23.65;21.13;;;20.80;99.90;;;;;;5098225;28;20051;-51
2022/08/16 06:04:20;;;;;;;22.52;19.98;;;20.90;99.90;;;;;;5099111;28;20044;-50
2022/08/16 06:06:46;;;;;;;21.67;19.35;;;21.00;99.90;;;;;;5098170;28;20043;-49
2022/08/16 06:09:14;;;;;;;22.38;19.98;;;21.00;99.90;;;;;;5098407;28;20052;-48
2022/08/16 06:11:40;;;;;;;22.70;20.02;;;21.10;99.90;;;;;;5097661;28;20090;-48
2022/08/16 06:14:06;;;;;;;27.10;19.33;;;21.10;99.90;;;;;;5099072;28;20521;-50
2022/08/16 06:16:32;;;;;;;21.92;18.50;;;21.10;99.90;;;;;;5097601;28;20079;-51
2022/08/16 06:18:58;;;;;;;21.10;18.73;;;21.20;99.90;;;;;;5098128;28;20078;-50
2022/08/16 06:21:24;;;;;;;23.33;19.20;;;21.10;99.90;;;;;;5098369;28;20040;-51
2022/08/16 06:23:49;;;;;;;22.25;19.70;;;21.20;99.90;;;;;;5097615;28;20040;-51
2022/08/16 06:26:15;;;;;;;21.75;19.45;;;21.20;99.90;;;;;;5098547;28;20054;-50
2022/08/16 06:28:41;;;;;;;22.13;19.60;;;21.30;99.90;;;;;;5095899;28;20098;-52
2022/08/16 06:31:09;;;;;;;21.52;19.08;;;21.30;99.90;;;;;;5098529;28;20099;-49
2022/08/16 06:33:35;;;;;;;21.95;19.33;;;21.30;99.90;;;;;;5096207;28;20066;-49
2022/08/16 06:36:01;;;;;;;21.85;19.55;;;21.40;99.90;;;;;;5097962;28;20048;-50
2022/08/16 06:38:27;;;;;;;22.98;20.58;;;21.50;99.90;;;;;;5096648;28;20123;-47
2022/08/16 06:40:53;;;;;;;22.20;19.70;;;21.50;99.90;;;;;;5097572;28;20052;-48
2022/08/16 06:43:19;;;;;;;24.58;20.25;;;21.40;99.90;;;;;;5098335;28;20509;-48
2022/08/16 06:45:46;;;;;;;23.27;19.30;;;21.40;99.90;;;;;;5096737;28;20044;-49
2022/08/16 06:48:12;;;;;;;23.85;21.23;;;21.50;99.90;;;;;;5097767;28;20078;-49
2022/08/16 06:50:37;;;;;;;25.42;21.42;;;21.60;99.90;;;;;;5097502;28;20040;-47
2022/08/16 06:53:04;;;;;;;22.90;20.50;;;21.60;99.90;;;;;;5097889;28;20101;-50
2022/08/16 06:55:30;;;;;;;24.63;21.83;;;21.70;99.90;;;;;;5098308;28;20052;-49
2022/08/16 06:57:56;;;;;;;24.38;21.02;;;21.70;99.90;;;;;;5096318;28;20100;-48
2022/08/16 07:00:23;;;;;;;22.92;20.50;;;21.80;99.90;;;;;;5097875;28;20095;-52
2022/08/16 07:02:49;;;;;;;26.65;20.92;;;21.90;99.90;;;;;;5096900;28;20044;-53
2022/08/16 07:05:16;;;;;;;24.35;21.85;;;21.90;99.90;;;;;;5098132;28;20050;-51
2022/08/16 07:07:45;;;;;;;22.88;20.38;;;22.00;99.90;;;;;;5096281;28;20687;-50
2022/08/16 07:10:11;;;;;;;25.85;21.92;;;22.10;99.90;;;;;;5095401;28;20079;-51
2022/08/16 07:12:37;;;;;;;23.98;21.40;;;22.10;99.90;;;;;;5097536;28;20036;-51
2022/08/16 07:15:04;;;;;;;24.25;20.58;;;22.20;99.90;;;;;;5096716;28;20055;-53
2022/08/16 07:17:31;;;;;;;24.60;21.88;;;22.30;99.90;;;;;;5097624;28;20046;-52
2022/08/16 07:19:57;;;;;;;23.33;20.80;;;22.40;99.90;;;;;;5092518;28;20032;-50
2022/08/16 07:22:23;;;;;;;24.80;22.02;;;22.40;99.90;;;;;;5086180;28;20045;-52
2022/08/16 07:24:50;;;;;;;23.77;20.92;;;22.40;99.90;;;;;;5085902;28;20514;-52
2022/08/16 07:27:15;;;;;;;26.20;21.77;;;22.40;99.90;;;;;;5086844;28;20091;-50
2022/08/16 07:29:41;;;;;;;23.95;21.45;;;22.40;99.90;;;;;;5085257;28;20040;-52
2022/08/16 07:32:08;;;;;;;23.88;21.40;;;22.30;99.90;;;;;;5085183;28;20091;-51
2022/08/16 07:34:33;;;;;;;25.73;21.08;;;22.50;99.90;;;;;;5090408;28;20043;-52
2022/08/16 07:37:06;;;;;;;23.88;21.48;;;22.60;99.90;;;;;;5084340;28;20105;-52
2022/08/16 07:39:32;;;;;;;22.45;20.08;;;22.60;99.90;;;;;;5089937;28;20035;-48
2022/08/16 07:41:57;;;;;;;23.98;21.45;;;22.70;99.90;;;;;;5085584;28;20100;-50
2022/08/16 07:44:23;;;;;;;22.73;19.88;;;22.80;99.90;;;;;;5086699;28;20130;-50
2022/08/16 07:46:49;;;;;;;25.13;20.45;;;22.90;99.90;;;;;;5085171;28;20083;-48
2022/08/16 07:49:15;;;;;;;23.05;20.65;;;23.00;99.90;;;;;;5085695;28;20049;-48
2022/08/16 07:51:40;;;;;;;23.75;21.20;;;23.00;99.90;;;;;;5085601;28;20045;-52
2022/08/16 07:54:08;;;;;;;26.02;21.30;;;22.90;99.90;;;;;;5085849;28;20028;-51
2022/08/16 07:56:34;;;;;;;22.80;20.23;;;22.80;99.90;;;;;;5086719;28;20062;-50
2022/08/16 07:59:00;;;;;;;22.33;19.83;;;22.90;99.90;;;;;;5084498;28;20041;-50
2022/08/16 08:01:28;;;;;;;23.63;20.83;;;23.20;99.90;;;;;;5086555;28;20040;-51
2022/08/16 08:03:55;;;;;;;23.17;20.65;;;23.30;99.90;;;;;;5092600;28;20048;-50
2022/08/16 08:06:23;;;;;;;24.17;21.58;;;23.40;99.90;;;;;;5096080;28;20071;-51
2022/08/16 08:08:48;;;;;;;22.90;19.13;;;23.40;99.90;;;;;;5096289;28;20052;-50
2022/08/16 08:11:15;;;;;;;23.08;20.58;;;23.40;99.90;;;;;;5096166;28;20601;-51
2022/08/16 08:13:41;;;;;;;23.00;20.45;;;23.50;99.90;;;;;;5099637;28;20043;-48
2022/08/16 08:16:08;;;;;;;21.38;18.95;;;23.50;99.90;;;;;;5096518;28;20052;-52
2022/08/16 08:18:35;;;;;;;22.10;18.83;;;23.70;99.90;;;;;;5084122;28;20040;-49
2022/08/16 08:21:01;;;;;;;19.67;17.48;;;23.70;99.90;;;;;;5079383;28;20115;-49
2022/08/16 08:23:27;;;;;;;23.15;18.77;;;23.70;99.90;;;;;;5078889;28;20102;-48
2022/08/16 08:25:53;;;;;;;20.73;18.52;;;23.80;99.90;;;;;;5079183;28;20072;-51
2022/08/16 08:28:19;;;;;;;22.40;18.45;;;23.90;99.90;;;;;;5077969;28;20051;-51
2022/08/16 08:30:45;;;;;;;24.20;18.42;;;23.80;99.90;;;;;;5078658;28;20045;-52
2022/08/16 08:33:11;;;;;;;21.30;17.70;;;23.90;99.90;;;;;;5078029;28;20080;-51
2022/08/16 08:35:37;;;;;;;21.15;17.75;;;24.00;99.90;;;;;;5078831;28;20110;-49
2022/08/16 08:38:07;;;;;;;19.30;16.52;;;24.10;99.90;;;;;;5085899;28;20178;-48
2022/08/16 08:40:34;;;;;;;19.67;15.10;;;24.30;99.90;;;;;;5097804;28;20107;-48
2022/08/16 08:43:01;;;;;;;20.88;16.30;;;24.40;99.90;;;;;;5098987;28;20407;-54
2022/08/16 08:45:28;;;;;;;22.23;16.65;;;24.50;99.90;;;;;;5098104;28;20036;-51
2022/08/16 08:47:55;;;;;;;17.23;15.40;;;24.50;99.90;;;;;;5098291;28;20056;-51
2022/08/16 08:50:23;;;;;;;18.30;14.05;;;24.60;99.90;;;;;;5097697;28;20068;-49
2022/08/16 08:52:50;;;;;;;17.45;15.00;;;24.80;99.90;;;;;;5098499;28;20060;-51
2022/08/16 08:55:17;;;;;;;18.02;14.77;;;24.60;99.90;;;;;;5099038;28;20051;-49
2022/08/16 08:57:45;;;;;;;14.02;12.05;;;24.70;99.90;;;;;;5098707;28;20460;-50
2022/08/16 09:00:13;;;;;;;12.73;10.85;;;24.90;99.90;;;;;;5099416;28;20068;-51
2022/08/16 09:02:38;;;;;;;14.32;10.90;;;25.00;99.90;;;;;;5098109;28;20044;-50
2022/08/16 09:05:05;;;;;;;13.07;10.20;;;25.00;99.90;;;;;;5099324;28;20098;-52
2022/08/16 09:07:30;;;;;;;13.55;10.45;;;25.10;99.90;;;;;;5098195;28;20044;-51
2022/08/16 09:09:56;;;;;;;14.13;10.15;;;25.30;99.90;;;;;;5098844;28;20096;-49
2022/08/16 09:12:22;;;;;;;13.05;10.18;;;25.30;99.90;;;;;;5099164;28;20040;-50
2022/08/16 09:14:48;;;;;;;15.68;11.20;;;25.40;99.90;;;;;;5098522;28;20036;-52
2022/08/16 09:17:14;;;;;;;14.38;11.60;;;25.50;99.90;;;;;;5099196;28;21030;-50
2022/08/16 09:19:40;;;;;;;13.38;12.07;;;25.40;99.90;;;;;;5098341;28;20063;-49
2022/08/16 09:22:10;;;;;;;18.63;13.13;;;25.60;99.90;;;;;;5099415;28;20083;-51
2022/08/16 09:24:36;;;;;;;14.98;12.73;;;25.50;99.90;;;;;;5098186;28;20036;-49
2022/08/16 09:27:02;;;;;;;16.27;12.93;;;25.60;99.90;;;;;;5098646;28;20036;-51
2022/08/16 09:29:28;;;;;;;16.55;14.27;;;25.60;99.90;;;;;;5097154;28;20083;-48
2022/08/16 09:31:57;;;;;;;17.80;14.52;;;25.50;99.90;;;;;;5098537;28;20044;-50
2022/08/16 09:34:23;;;;;;;17.98;15.43;;;25.50;99.90;;;;;;5098858;28;20077;-52
2022/08/16 09:36:49;;;;;;;18.73;15.32;;;25.50;99.90;;;;;;5097913;28;20044;-51
2022/08/16 09:39:16;;;;;;;17.00;15.05;;;25.80;99.90;;;;;;5096893;28;20511;-52
2022/08/16 09:41:43;;;;;;;18.92;14.40;;;25.60;99.90;;;;;;5097788;28;20055;-51
2022/08/16 09:44:09;;;;;;;18.88;14.18;;;25.70;99.90;;;;;;5096826;28;20083;-48
2022/08/16 09:46:34;;;;;;;19.30;14.55;;;25.80;99.90;;;;;;5098368;28;20545;-49
2022/08/16 09:49:00;;;;;;;16.13;13.73;;;25.90;99.90;;;;;;5097848;28;20044;-51
2022/08/16 09:51:26;;;;;;;13.80;12.30;;;26.00;99.90;;;;;;5100076;28;20036;-51
2022/08/16 09:53:54;;;;;;;13.88;11.23;;;26.00;99.90;;;;;;5101216;28;20040;-52
2022/08/16 09:56:29;;;;;;;15.27;11.60;;;26.30;99.90;;;;;;5102328;28;20089;-51
2022/08/16 09:58:56;;;;;;;19.52;15.63;;;26.30;99.90;;;;;;5101337;28;20051;-49
2022/08/16 10:01:23;;;;;;;18.00;14.93;;;26.10;99.90;;;;;;5100505;28;20118;-50
2022/08/16 10:03:50;;;;;;;15.35;13.55;;;26.20;99.90;;;;;;5101799;28;20044;-48
2022/08/16 10:06:18;;;;;;;17.38;14.90;;;26.20;99.90;;;;;;5101471;28;20036;-51
2022/08/16 10:08:44;;;;;;;15.73;12.18;;;26.20;99.90;;;;;;5102088;28;20054;-50
2022/08/16 10:14:05;;;;;;;13.27;11.85;;;26.20;99.90;;;;;;5081703;28;20080;-49
2022/08/16 10:16:32;;;;;;;12.98;10.45;;;26.00;99.90;;;;;;5101446;28;20044;-50
2022/08/16 10:18:58;;;;;;;13.00;10.23;;;26.10;99.90;;;;;;5101479;28;20051;-51
2022/08/16 10:21:24;;;;;;;14.65;10.98;;;26.30;99.90;;;;;;5102086;28;20047;-51
2022/08/16 10:23:53;;;;;;;13.13;10.95;;;26.20;99.90;;;;;;5101188;28;20047;-52
2022/08/16 10:26:20;;;;;;;13.00;9.20;;;26.40;99.90;;;;;;5101999;28;20040;-50
2022/08/16 10:28:46;;;;;;;13.68;9.57;;;26.50;99.90;;;;;;5100676;28;20550;-51
2022/08/16 10:31:12;;;;;;;11.88;10.23;;;26.60;99.90;;;;;;5101878;28;20127;-57
2022/08/16 10:33:38;;;;;;;15.02;10.90;;;26.50;99.90;;;;;;5101620;28;20040;-50
2022/08/16 10:36:06;;;;;;;13.30;11.48;;;26.70;99.90;;;;;;5101188;28;20062;-49
2022/08/16 10:38:35;;;;;;;15.38;11.45;;;26.40;99.90;;;;;;5099939;28;20096;-49
2022/08/16 10:41:01;;;;;;;12.93;11.38;;;26.60;99.90;;;;;;5100538;28;20165;-52
2022/08/16 10:43:27;;;;;;;14.57;11.35;;;26.70;99.90;;;;;;5101833;28;20518;-49
2022/08/16 10:45:54;;;;;;;16.77;10.63;;;26.70;99.90;;;;;;5100602;28;20059;-52
2022/08/16 10:48:19;;;;;;;15.77;11.35;;;26.60;99.90;;;;;;5101139;28;20056;-52
2022/08/16 10:50:45;;;;;;;17.05;10.65;;;26.40;99.90;;;;;;5100696;28;20050;-51
2022/08/16 10:53:11;;;;;;;15.93;11.25;;;26.60;99.90;;;;;;5100990;28;20066;-51
2022/08/16 10:55:41;;;;;;;11.38;9.70;;;26.60;99.90;;;;;;5101648;28;20055;-52
2022/08/16 10:58:09;;;;;;;13.45;11.13;;;26.80;99.90;;;;;;5100346;28;20040;-52
2022/08/16 11:00:39;;;;;;;15.27;10.38;;;26.80;99.90;;;;;;5101370;28;20036;-50
2022/08/16 11:03:06;;;;;;;13.15;10.80;;;26.90;99.90;;;;;;5098519;28;20036;-50
2022/08/16 11:05:35;;;;;;;13.77;10.77;;;27.10;99.90;;;;;;5100098;28;20123;-51
2022/08/16 11:08:01;;;;;;;17.35;11.90;;;27.00;99.90;;;;;;5100819;28;20099;-52
2022/08/16 11:10:30;;;;;;;17.15;10.93;;;26.80;99.90;;;;;;5098935;28;20043;-48
2022/08/16 11:12:55;;;;;;;11.60;9.68;;;26.90;99.90;;;;;;5101341;28;20032;-52
2022/08/16 11:15:22;;;;;;;16.20;10.02;;;27.00;99.90;;;;;;5100094;28;20426;-52
2022/08/16 11:17:49;;;;;;;15.10;10.10;;;27.10;99.90;;;;;;5100839;28;20040;-51
2022/08/16 11:20:16;;;;;;;14.07;9.68;;;27.30;99.90;;;;;;5100088;28;20044;-48
2022/08/16 11:22:43;;;;;;;13.23;11.23;;;27.60;99.90;;;;;;5101059;28;20120;-52
2022/08/16 11:25:10;;;;;;;14.45;10.38;;;27.60;99.90;;;;;;5101009;28;20044;-51
2022/08/16 11:27:36;;;;;;;13.50;9.57;;;27.70;99.90;;;;;;5099860;28;20095;-49
2022/08/16 11:30:04;;;;;;;15.00;13.38;;;27.90;99.90;;;;;;5099690;28;20116;-51
2022/08/16 11:32:29;;;;;;;12.82;10.73;;;27.60;99.90;;;;;;5099716;28;20410;-51
2022/08/16 11:34:55;;;;;;;16.52;14.38;;;27.80;99.90;;;;;;5099357;28;20067;-49
2022/08/16 11:37:22;;;;;;;17.67;12.27;;;27.60;99.90;;;;;;5099298;28;20036;-52
2022/08/16 11:39:48;;;;;;;18.27;14.20;;;27.80;99.90;;;;;;5100282;28;20117;-51
2022/08/16 11:42:14;;;;;;;16.05;12.35;;;27.60;99.90;;;;;;5100225;28;20047;-52
2022/08/16 11:44:40;;;;;;;15.90;12.35;;;27.60;99.90;;;;;;5099762;28;20044;-51
2022/08/16 11:47:05;;;;;;;16.13;14.20;;;27.60;99.90;;;;;;5100457;28;20119;-49
2022/08/16 11:49:31;;;;;;;14.15;12.32;;;27.60;99.90;;;;;;5099250;28;20418;-49
2022/08/16 11:51:57;;;;;;;13.82;11.93;;;27.70;99.90;;;;;;5100153;28;20050;-51
2022/08/16 11:54:23;;;;;;;14.75;12.02;;;27.70;99.90;;;;;;5099036;28;20150;-51
2022/08/16 11:56:52;;;;;;;15.60;14.07;;;27.60;99.90;;;;;;5100199;28;20043;-50
2022/08/16 11:59:18;;;;;;;18.42;15.63;;;27.40;99.90;;;;;;5099925;28;20040;-51
2022/08/16 12:01:44;;;;;;;15.93;14.23;;;27.10;99.90;;;;;;5098308;28;20113;-52
2022/08/16 12:04:11;;;;;;;15.55;13.20;;;27.10;99.90;;;;;;5100092;28;20038;-51
2022/08/16 12:06:36;;;;;;;16.98;13.73;;;27.30;99.90;;;;;;5099025;28;20048;-51
2022/08/16 12:09:04;;;;;;;15.73;13.77;;;27.60;99.90;;;;;;5099834;28;20036;-50
2022/08/16 12:11:30;;;;;;;17.95;13.18;;;27.60;99.90;;;;;;5099003;28;20050;-52
2022/08/16 12:13:56;;;;;;;16.33;12.50;;;27.60;99.90;;;;;;5097781;28;20067;-50
2022/08/16 12:16:21;;;;;;;12.70;10.75;;;27.70;99.90;;;;;;5097952;28;20043;-52
2022/08/16 12:18:48;;;;;;;16.73;13.30;;;27.70;99.90;;;;;;5099268;28;20048;-52
2022/08/16 12:21:16;;;;;;;16.10;13.30;;;27.40;99.90;;;;;;5100004;28;20044;-52
2022/08/16 12:23:41;;;;;;;16.02;14.32;;;27.30;99.90;;;;;;5098991;28;20099;-52
2022/08/16 12:26:07;;;;;;;20.05;14.52;;;27.00;99.90;;;;;;5099993;28;20052;-50
2022/08/16 12:28:33;;;;;;;14.70;12.75;;;26.80;99.90;;;;;;5098363;28;20086;-49
2022/08/16 12:30:59;;;;;;;16.35;13.38;;;26.70;99.90;;;;;;5099694;28;20051;-50
2022/08/16 12:33:25;;;;;;;13.73;12.32;;;26.60;99.90;;;;;;5099155;28;20065;-52
2022/08/16 12:35:51;;;;;;;17.30;13.50;;;26.70;99.90;;;;;;5099437;28;20044;-51